Carnival Vista — 3EMB9 — position and weather

sailwx.info

Track history (hours):
 
Tides and Currents Weather Stations Pressure Air Temp Water Temp Dewpoint Dewpoint Depression Visibility Wind Speed Wind Dir Waves Ship Positions

Carnival Vista

Last reported at 2017-May-28 06:31 UTC. Time now 2017-May-28 06:45 UTC.
Position N 25°30' W 079°48'.

Length 324 m; draft 8.5 m.

Type: Passenger vessel. MMSI: 356883000.

Date/timePositionNaut miles runAvg speedWind from/ knotsBaromVisibWave heightAir tempDewpointWater temp
2017-May-28 06:31N 25°30' W 079°48'816.7
2017-May-28 06:01N 25°23' W 079°42'1019.6
2017-May-28 05:30N 25°14' W 079°39'  
2017-May-21 00:03N 26°13' W 079°24'118.9
2017-May-21 00:00N 26°12' W 079°25'1019.2
2017-May-20 23:30N 26°04' W 079°31'919.0
2017-May-20 23:00N 25°58' W 079°39'917.8
2017-May-20 22:30N 25°54' W 079°48'917.2
2017-May-20 22:00N 25°50' W 079°56'815.2
2017-May-20 21:30N 25°47' W 080°04'4 8.9
2017-May-20 21:00N 25°46' W 080°09'1 1.7
2017-May-20 20:27N 25°47' W 080°10'0 0.0
2017-May-20 19:57N 25°47' W 080°10'0 0.0
2017-May-20 19:27N 25°47' W 080°10'0 0.0
2017-May-20 18:57N 25°47' W 080°10'0 0.0
2017-May-20 18:27N 25°47' W 080°10'0 0.0
2017-May-20 17:57N 25°47' W 080°10'0 0.0
2017-May-20 17:27N 25°47' W 080°10'0 0.0
2017-May-20 16:57N 25°47' W 080°10'0 0.0
2017-May-20 16:27N 25°47' W 080°10'0 0.0
2017-May-20 15:57N 25°47' W 080°10'0 0.0
2017-May-20 15:27N 25°47' W 080°10'0 0.0
2017-May-20 14:57N 25°47' W 080°10'0 0.0
2017-May-20 14:27N 25°47' W 080°10'0 0.0
2017-May-20 13:27N 25°47' W 080°10'0 0.0
2017-May-20 12:57N 25°47' W 080°10'0 0.0
2017-May-20 12:27N 25°47' W 080°10'0 0.0
2017-May-20 11:57N 25°47' W 080°10'0 0.0
2017-May-20 11:27N 25°47' W 080°10'0 0.0
2017-May-20 10:57N 25°47' W 080°10'0 0.0
2017-May-20 10:27N 25°47' W 080°10'0 0.0
2017-May-20 09:57N 25°47' W 080°10'0 0.0
2017-May-20 09:27N 25°47' W 080°10'0 0.0
2017-May-20 09:00N 25°47' W 080°10'0 0.0
2017-May-20 08:30N 25°47' W 080°10'1 1.9
2017-May-20 08:00N 25°47' W 080°11'2 4.5
2017-May-20 07:30N 25°46' W 080°09'510.1
2017-May-20 07:00N 25°46' W 080°03'5 9.8
2017-May-20 06:30N 25°43' W 079°59'1020.1
2017-May-20 06:00N 25°34' W 079°54'1020.5
2017-May-20 05:30N 25°25' W 079°49'1122.5
2017-May-20 05:00N 25°15' W 079°42'49216.6
2017-May-18 23:22N 20°32' W 086°59'3 8.9
2017-May-18 23:00N 20°29' W 086°59'0 0.8
2017-May-18 22:28N 20°29' W 086°59'0 0.0
2017-May-18 21:58N 20°29' W 086°59'0 0.0
2017-May-18 21:25N 20°29' W 086°59'0 0.0
2017-May-18 20:58N 20°29' W 086°59'0 0.0
2017-May-18 20:28N 20°29' W 086°59'0 0.0
2017-May-18 19:55N 20°29' W 086°59'0 0.0
2017-May-18 19:28N 20°29' W 086°59'0 0.0
2017-May-18 18:55N 20°29' W 086°59'0 0.0
2017-May-18 18:28N 20°29' W 086°59'0 0.0
2017-May-18 17:55N 20°29' W 086°59'0 0.0
2017-May-18 17:28N 20°29' W 086°59'0 0.0
2017-May-18 16:55N 20°29' W 086°59'0 0.0
2017-May-18 16:22N 20°29' W 086°59'0 0.0
2017-May-18 15:55N 20°29' W 086°59'0 0.0
2017-May-18 15:28N 20°29' W 086°59'0 0.0
2017-May-18 15:00N 20°29' W 086°59'0 0.0
2017-May-18 14:00N 20°29' W 086°59'0 0.3
2017-May-18 13:30N 20°29' W 086°59'2 4.7
2017-May-18 13:00N 20°31' W 086°59'5 9.2
2017-May-18 12:30N 20°35' W 086°57'714.4
2017-May-18 12:00N 20°40' W 086°51'  
Track history (hours):
 
Tides and Currents Weather Stations Pressure Air Temp Water Temp Dewpoint Dewpoint Depression Visibility Wind Speed Wind Dir Waves Ship Positions

Carnival Vista

Last reported at 2017-May-28 06:31 UTC. Time now 2017-May-28 06:45 UTC.
Position N 25°30' W 079°48'.

Length 324 m; draft 8.5 m.

Type: Passenger vessel. MMSI: 356883000.

Date/timePositionNaut miles runAvg speedWind from/ knotsBaromVisibWave heightAir tempDewpointWater temp
2017-May-28 06:31N 25°30' W 079°48'816.7
2017-May-28 06:01N 25°23' W 079°42'1019.6
2017-May-28 05:30N 25°14' W 079°39'  
2017-May-21 00:03N 26°13' W 079°24'118.9
2017-May-21 00:00N 26°12' W 079°25'1019.2
2017-May-20 23:30N 26°04' W 079°31'919.0
2017-May-20 23:00N 25°58' W 079°39'917.8
2017-May-20 22:30N 25°54' W 079°48'917.2
2017-May-20 22:00N 25°50' W 079°56'815.2
2017-May-20 21:30N 25°47' W 080°04'4 8.9
2017-May-20 21:00N 25°46' W 080°09'1 1.7
2017-May-20 20:27N 25°47' W 080°10'0 0.0
2017-May-20 19:57N 25°47' W 080°10'0 0.0
2017-May-20 19:27N 25°47' W 080°10'0 0.0
2017-May-20 18:57N 25°47' W 080°10'0 0.0
2017-May-20 18:27N 25°47' W 080°10'0 0.0
2017-May-20 17:57N 25°47' W 080°10'0 0.0
2017-May-20 17:27N 25°47' W 080°10'0 0.0
2017-May-20 16:57N 25°47' W 080°10'0 0.0
2017-May-20 16:27N 25°47' W 080°10'0 0.0
2017-May-20 15:57N 25°47' W 080°10'0 0.0
2017-May-20 15:27N 25°47' W 080°10'0 0.0
2017-May-20 14:57N 25°47' W 080°10'0 0.0
2017-May-20 14:27N 25°47' W 080°10'0 0.0
2017-May-20 13:27N 25°47' W 080°10'0 0.0
2017-May-20 12:57N 25°47' W 080°10'0 0.0
2017-May-20 12:27N 25°47' W 080°10'0 0.0
2017-May-20 11:57N 25°47' W 080°10'0 0.0
2017-May-20 11:27N 25°47' W 080°10'0 0.0
2017-May-20 10:57N 25°47' W 080°10'0 0.0
2017-May-20 10:27N 25°47' W 080°10'0 0.0
2017-May-20 09:57N 25°47' W 080°10'0 0.0
2017-May-20 09:27N 25°47' W 080°10'0 0.0
2017-May-20 09:00N 25°47' W 080°10'0 0.0
2017-May-20 08:30N 25°47' W 080°10'1 1.9
2017-May-20 08:00N 25°47' W 080°11'2 4.5
2017-May-20 07:30N 25°46' W 080°09'510.1
2017-May-20 07:00N 25°46' W 080°03'5 9.8
2017-May-20 06:30N 25°43' W 079°59'1020.1
2017-May-20 06:00N 25°34' W 079°54'1020.5
2017-May-20 05:30N 25°25' W 079°49'1122.5
2017-May-20 05:00N 25°15' W 079°42'49216.6
2017-May-18 23:22N 20°32' W 086°59'3 8.9
2017-May-18 23:00N 20°29' W 086°59'0 0.8
2017-May-18 22:28N 20°29' W 086°59'0 0.0
2017-May-18 21:58N 20°29' W 086°59'0 0.0
2017-May-18 21:25N 20°29' W 086°59'0 0.0
2017-May-18 20:58N 20°29' W 086°59'0 0.0
2017-May-18 20:28N 20°29' W 086°59'0 0.0
2017-May-18 19:55N 20°29' W 086°59'0 0.0
2017-May-18 19:28N 20°29' W 086°59'0 0.0
2017-May-18 18:55N 20°29' W 086°59'0 0.0
2017-May-18 18:28N 20°29' W 086°59'0 0.0
2017-May-18 17:55N 20°29' W 086°59'0 0.0
2017-May-18 17:28N 20°29' W 086°59'0 0.0
2017-May-18 16:55N 20°29' W 086°59'0 0.0
2017-May-18 16:22N 20°29' W 086°59'0 0.0
2017-May-18 15:55N 20°29' W 086°59'0 0.0
2017-May-18 15:28N 20°29' W 086°59'0 0.0
2017-May-18 15:00N 20°29' W 086°59'0 0.0
2017-May-18 14:00N 20°29' W 086°59'0 0.3
2017-May-18 13:30N 20°29' W 086°59'2 4.7
2017-May-18 13:00N 20°31' W 086°59'5 9.2
2017-May-18 12:30N 20°35' W 086°57'714.4
2017-May-18 12:00N 20°40' W 086°51'  

Dump ship's entire track history